sensor_id;sensor_type;location;lat;lon;timestamp;pressure;altitude;pressure_sealevel;temperature;humidity
27202;BME280;14717;46.924;15.474;2024-02-14T00:00:53;98427.31;;;0.57;100.00
27202;BME280;14717;46.924;15.474;2024-02-14T00:03:18;98426.59;;;0.74;100.00
27202;BME280;14717;46.924;15.474;2024-02-14T00:05:45;98422.06;;;0.62;100.00
27202;BME280;14717;46.924;15.474;2024-02-14T00:08:11;98423.25;;;0.72;100.00
27202;BME280;14717;46.924;15.474;2024-02-14T00:10:39;98427.03;;;1.02;100.00
27202;BME280;14717;46.924;15.474;2024-02-14T00:13:04;98425.28;;;1.14;100.00
27202;BME280;14717;46.924;15.474;2024-02-14T00:15:29;98427.72;;;1.22;100.00
27202;BME280;14717;46.924;15.474;2024-02-14T00:17:55;98437.56;;;1.23;100.00
27202;BME280;14717;46.924;15.474;2024-02-14T00:20:20;98438.31;;;1.05;100.00
27202;BME280;14717;46.924;15.474;2024-02-14T00:22:47;98429.72;;;0.78;100.00
27202;BME280;14717;46.924;15.474;2024-02-14T00:25:12;98438.41;;;0.92;100.00
27202;BME280;14717;46.924;15.474;2024-02-14T00:27:37;98432.88;;;1.05;100.00
27202;BME280;14717;46.924;15.474;2024-02-14T00:30:03;98431.22;;;1.04;100.00
27202;BME280;14717;46.924;15.474;2024-02-14T00:32:29;98431.69;;;0.95;100.00
27202;BME280;14717;46.924;15.474;2024-02-14T00:34:54;98436.69;;;0.98;100.00
27202;BME280;14717;46.924;15.474;2024-02-14T00:37:20;98429.56;;;0.97;100.00
27202;BME280;14717;46.924;15.474;2024-02-14T00:39:45;98445.09;;;0.90;100.00
27202;BME280;14717;46.924;15.474;2024-02-14T00:42:10;98446.75;;;0.97;100.00
27202;BME280;14717;46.924;15.474;2024-02-14T00:44:36;98450.19;;;0.80;100.00
27202;BME280;14717;46.924;15.474;2024-02-14T00:47:01;98451.50;;;0.71;100.00
27202;BME280;14717;46.924;15.474;2024-02-14T00:49:27;98452.03;;;0.86;100.00
27202;BME280;14717;46.924;15.474;2024-02-14T00:51:53;98454.75;;;0.86;100.00
27202;BME280;14717;46.924;15.474;2024-02-14T00:54:18;98463.16;;;0.78;100.00
27202;BME280;14717;46.924;15.474;2024-02-14T00:56:44;98461.94;;;0.74;100.00
27202;BME280;14717;46.924;15.474;2024-02-14T00:59:10;98468.69;;;0.59;100.00
27202;BME280;14717;46.924;15.474;2024-02-14T01:01:35;98477.31;;;0.49;100.00
27202;BME280;14717;46.924;15.474;2024-02-14T01:04:01;98466.47;;;0.37;100.00
27202;BME280;14717;46.924;15.474;2024-02-14T01:06:26;98471.03;;;0.49;100.00
27202;BME280;14717;46.924;15.474;2024-02-14T01:08:51;98462.44;;;0.52;100.00
27202;BME280;14717;46.924;15.474;2024-02-14T01:11:17;98475.38;;;0.56;100.00
27202;BME280;14717;46.924;15.474;2024-02-14T01:13:42;98468.50;;;0.47;100.00
27202;BME280;14717;46.924;15.474;2024-02-14T01:16:07;98464.91;;;0.60;100.00
27202;BME280;14717;46.924;15.474;2024-02-14T01:18:33;98472.41;;;0.71;100.00
27202;BME280;14717;46.924;15.474;2024-02-14T01:20:58;98466.63;;;0.54;100.00
27202;BME280;14717;46.924;15.474;2024-02-14T01:23:25;98469.59;;;0.46;100.00
27202;BME280;14717;46.924;15.474;2024-02-14T01:25:51;98469.97;;;0.50;100.00
27202;BME280;14717;46.924;15.474;2024-02-14T01:28:16;98468.91;;;0.51;100.00
27202;BME280;14717;46.924;15.474;2024-02-14T01:30:42;98466.69;;;0.42;100.00
27202;BME280;14717;46.924;15.474;2024-02-14T01:33:08;98457.84;;;0.46;100.00
27202;BME280;14717;46.924;15.474;2024-02-14T01:35:33;98466.91;;;0.34;100.00
27202;BME280;14717;46.924;15.474;2024-02-14T01:37:58;98460.63;;;0.40;100.00
27202;BME280;14717;46.924;15.474;2024-02-14T01:40:24;98465.00;;;0.41;100.00
27202;BME280;14717;46.924;15.474;2024-02-14T01:42:49;98463.94;;;0.48;100.00
27202;BME280;14717;46.924;15.474;2024-02-14T01:45:15;98470.03;;;0.37;100.00
27202;BME280;14717;46.924;15.474;2024-02-14T01:47:41;98470.75;;;0.00;100.00
27202;BME280;14717;46.924;15.474;2024-02-14T01:50:07;98476.41;;;-0.07;100.00
27202;BME280;14717;46.924;15.474;2024-02-14T01:52:38;98472.59;;;0.13;100.00
27202;BME280;14717;46.924;15.474;2024-02-14T01:55:04;98480.09;;;0.24;100.00
27202;BME280;14717;46.924;15.474;2024-02-14T01:57:31;98481.38;;;0.15;100.00
27202;BME280;14717;46.924;15.474;2024-02-14T01:59:58;98470.72;;;0.20;100.00
27202;BME280;14717;46.924;15.474;2024-02-14T02:02:25;98470.13;;;0.05;100.00
27202;BME280;14717;46.924;15.474;2024-02-14T02:04:51;98469.97;;;-0.13;100.00
27202;BME280;14717;46.924;15.474;2024-02-14T02:07:17;98477.28;;;-0.33;100.00
27202;BME280;14717;46.924;15.474;2024-02-14T02:09:44;98471.41;;;-0.30;100.00
27202;BME280;14717;46.924;15.474;2024-02-14T02:12:09;98468.06;;;-0.19;100.00
27202;BME280;14717;46.924;15.474;2024-02-14T02:14:34;98469.50;;;-0.10;100.00
27202;BME280;14717;46.924;15.474;2024-02-14T02:17:00;98468.06;;;-0.06;100.00
27202;BME280;14717;46.924;15.474;2024-02-14T02:19:25;98466.59;;;-0.15;100.00
27202;BME280;14717;46.924;15.474;2024-02-14T02:21:51;98466.84;;;-0.16;100.00
27202;BME280;14717;46.924;15.474;2024-02-14T02:24:17;98453.09;;;-0.41;100.00
27202;BME280;14717;46.924;15.474;2024-02-14T02:26:43;98453.91;;;-0.59;100.00
27202;BME280;14717;46.924;15.474;2024-02-14T02:29:09;98456.22;;;-0.50;100.00
27202;BME280;14717;46.924;15.474;2024-02-14T02:31:35;98450.56;;;-0.29;100.00
27202;BME280;14717;46.924;15.474;2024-02-14T02:34:00;98457.22;;;-0.25;100.00
27202;BME280;14717;46.924;15.474;2024-02-14T02:36:26;98454.72;;;-0.14;100.00
27202;BME280;14717;46.924;15.474;2024-02-14T02:38:55;98472.06;;;-0.21;100.00
27202;BME280;14717;46.924;15.474;2024-02-14T02:41:20;98469.09;;;-0.20;100.00
27202;BME280;14717;46.924;15.474;2024-02-14T02:43:46;98474.53;;;-0.20;100.00
27202;BME280;14717;46.924;15.474;2024-02-14T02:46:15;98468.94;;;-0.50;100.00
27202;BME280;14717;46.924;15.474;2024-02-14T02:48:40;98476.44;;;-0.78;100.00
27202;BME280;14717;46.924;15.474;2024-02-14T02:51:06;98470.59;;;-0.75;100.00
27202;BME280;14717;46.924;15.474;2024-02-14T02:53:32;98483.53;;;-0.51;100.00
27202;BME280;14717;46.924;15.474;2024-02-14T02:55:57;98473.09;;;-0.29;100.00
27202;BME280;14717;46.924;15.474;2024-02-14T02:58:24;98470.19;;;-0.27;100.00
27202;BME280;14717;46.924;15.474;2024-02-14T03:00:50;98477.28;;;-0.58;100.00
27202;BME280;14717;46.924;15.474;2024-02-14T03:03:15;98482.88;;;-0.79;100.00
27202;BME280;14717;46.924;15.474;2024-02-14T03:05:41;98486.44;;;-0.53;100.00
27202;BME280;14717;46.924;15.474;2024-02-14T03:08:09;98478.72;;;-0.43;100.00
27202;BME280;14717;46.924;15.474;2024-02-14T03:10:39;98482.72;;;-0.45;100.00
27202;BME280;14717;46.924;15.474;2024-02-14T03:13:06;98493.16;;;-0.43;100.00
27202;BME280;14717;46.924;15.474;2024-02-14T03:15:33;98487.69;;;-0.30;100.00
27202;BME280;14717;46.924;15.474;2024-02-14T03:17:58;98494.59;;;-0.27;100.00
27202;BME280;14717;46.924;15.474;2024-02-14T03:20:23;98496.47;;;-0.53;100.00
27202;BME280;14717;46.924;15.474;2024-02-14T03:22:49;98501.47;;;-0.63;100.00
27202;BME280;14717;46.924;15.474;2024-02-14T03:25:17;98499.59;;;-0.56;100.00
27202;BME280;14717;46.924;15.474;2024-02-14T03:27:43;98498.16;;;-0.46;100.00
27202;BME280;14717;46.924;15.474;2024-02-14T03:30:12;98506.28;;;-0.52;100.00
27202;BME280;14717;46.924;15.474;2024-02-14T03:32:38;98510.66;;;-0.45;100.00
27202;BME280;14717;46.924;15.474;2024-02-14T03:35:03;98519.84;;;-0.52;100.00
27202;BME280;14717;46.924;15.474;2024-02-14T03:37:29;98518.59;;;-0.56;100.00
27202;BME280;14717;46.924;15.474;2024-02-14T03:39:54;98518.59;;;-0.56;100.00
27202;BME280;14717;46.924;15.474;2024-02-14T03:42:20;98512.75;;;-0.47;100.00
27202;BME280;14717;46.924;15.474;2024-02-14T03:44:45;98516.91;;;-0.44;100.00
27202;BME280;14717;46.924;15.474;2024-02-14T03:47:12;98517.78;;;-0.50;100.00
27202;BME280;14717;46.924;15.474;2024-02-14T03:49:38;98513.16;;;-0.56;100.00
27202;BME280;14717;46.924;15.474;2024-02-14T03:52:06;98521.72;;;-0.53;100.00
27202;BME280;14717;46.924;15.474;2024-02-14T03:54:37;98509.63;;;-0.50;100.00
27202;BME280;14717;46.924;15.474;2024-02-14T03:57:03;98524.44;;;-0.53;100.00
27202;BME280;14717;46.924;15.474;2024-02-14T03:59:35;98522.78;;;-0.47;100.00
27202;BME280;14717;46.924;15.474;2024-02-14T04:02:01;98519.41;;;-0.49;100.00
27202;BME280;14717;46.924;15.474;2024-02-14T04:04:26;98528.59;;;-0.63;100.00
27202;BME280;14717;46.924;15.474;2024-02-14T04:06:52;98536.09;;;-0.78;100.00
27202;BME280;14717;46.924;15.474;2024-02-14T04:09:17;98529.41;;;-0.88;100.00
27202;BME280;14717;46.924;15.474;2024-02-14T04:11:43;98541.50;;;-0.85;100.00
27202;BME280;14717;46.924;15.474;2024-02-14T04:14:08;98544.63;;;-0.81;100.00
27202;BME280;14717;46.924;15.474;2024-02-14T04:16:33;98549.38;;;-0.96;100.00
27202;BME280;14717;46.924;15.474;2024-02-14T04:18:59;98537.56;;;-0.82;100.00
27202;BME280;14717;46.924;15.474;2024-02-14T04:21:24;98533.56;;;-0.86;100.00
27202;BME280;14717;46.924;15.474;2024-02-14T04:23:50;98531.06;;;-0.87;100.00
27202;BME280;14717;46.924;15.474;2024-02-14T04:26:22;98538.19;;;-0.80;100.00
27202;BME280;14717;46.924;15.474;2024-02-14T04:28:47;98529.84;;;-0.72;100.00
27202;BME280;14717;46.924;15.474;2024-02-14T04:31:13;98538.19;;;-0.74;100.00
27202;BME280;14717;46.924;15.474;2024-02-14T04:33:38;98541.09;;;-0.75;100.00
27202;BME280;14717;46.924;15.474;2024-02-14T04:36:04;98543.56;;;-0.86;100.00
27202;BME280;14717;46.924;15.474;2024-02-14T04:38:31;98538.75;;;-0.91;100.00
27202;BME280;14717;46.924;15.474;2024-02-14T04:40:56;98547.28;;;-1.00;100.00
27202;BME280;14717;46.924;15.474;2024-02-14T04:43:26;98551.09;;;-0.88;100.00
27202;BME280;14717;46.924;15.474;2024-02-14T04:45:52;98539.59;;;-0.90;100.00
27202;BME280;14717;46.924;15.474;2024-02-14T04:48:17;98544.41;;;-0.80;100.00
27202;BME280;14717;46.924;15.474;2024-02-14T04:50:43;98545.44;;;-0.81;100.00
27202;BME280;14717;46.924;15.474;2024-02-14T04:53:08;98556.09;;;-0.79;100.00
27202;BME280;14717;46.924;15.474;2024-02-14T04:55:33;98546.50;;;-0.82;100.00
27202;BME280;14717;46.924;15.474;2024-02-14T04:57:59;98549.22;;;-0.82;100.00
27202;BME280;14717;46.924;15.474;2024-02-14T05:00:24;98562.72;;;-0.94;100.00
27202;BME280;14717;46.924;15.474;2024-02-14T05:02:50;98557.75;;;-0.85;100.00
27202;BME280;14717;46.924;15.474;2024-02-14T05:05:16;98558.13;;;-1.07;100.00
27202;BME280;14717;46.924;15.474;2024-02-14T05:07:41;98561.47;;;-1.05;100.00
27202;BME280;14717;46.924;15.474;2024-02-14T05:10:07;98553.78;;;-0.95;100.00
27202;BME280;14717;46.924;15.474;2024-02-14T05:12:33;98556.22;;;-1.13;100.00
27202;BME280;14717;46.924;15.474;2024-02-14T05:14:58;98551.84;;;-1.07;100.00
27202;BME280;14717;46.924;15.474;2024-02-14T05:17:24;98561.47;;;-1.05;100.00
27202;BME280;14717;46.924;15.474;2024-02-14T05:19:49;98555.59;;;-1.15;100.00
27202;BME280;14717;46.924;15.474;2024-02-14T05:22:14;98558.53;;;-1.10;100.00
27202;BME280;14717;46.924;15.474;2024-02-14T05:24:40;98575.94;;;-1.25;100.00
27202;BME280;14717;46.924;15.474;2024-02-14T05:27:05;98560.97;;;-1.21;100.00
27202;BME280;14717;46.924;15.474;2024-02-14T05:29:31;98567.28;;;-1.08;100.00
27202;BME280;14717;46.924;15.474;2024-02-14T05:31:57;98567.09;;;-1.00;100.00
27202;BME280;14717;46.924;15.474;2024-02-14T05:34:22;98565.03;;;-0.98;100.00
27202;BME280;14717;46.924;15.474;2024-02-14T05:36:47;98565.66;;;-0.96;100.00
27202;BME280;14717;46.924;15.474;2024-02-14T05:39:13;98566.19;;;-1.20;100.00
27202;BME280;14717;46.924;15.474;2024-02-14T05:41:41;98557.47;;;-1.09;100.00
27202;BME280;14717;46.924;15.474;2024-02-14T05:44:07;98563.97;;;-1.03;100.00
27202;BME280;14717;46.924;15.474;2024-02-14T05:46:32;98569.38;;;-1.10;100.00
27202;BME280;14717;46.924;15.474;2024-02-14T05:48:58;98563.94;;;-1.10;100.00
27202;BME280;14717;46.924;15.474;2024-02-14T05:51:23;98566.88;;;-1.05;100.00
27202;BME280;14717;46.924;15.474;2024-02-14T05:53:49;98556.91;;;-0.91;100.00
27202;BME280;14717;46.924;15.474;2024-02-14T05:56:14;98561.50;;;-0.86;100.00
27202;BME280;14717;46.924;15.474;2024-02-14T05:58:40;98562.78;;;-0.82;100.00
27202;BME280;14717;46.924;15.474;2024-02-14T06:01:05;98554.41;;;-0.93;100.00
27202;BME280;14717;46.924;15.474;2024-02-14T06:03:31;98566.03;;;-0.99;100.00
27202;BME280;14717;46.924;15.474;2024-02-14T06:05:57;98571.88;;;-0.95;100.00
27202;BME280;14717;46.924;15.474;2024-02-14T06:08:22;98567.69;;;-1.11;100.00
27202;BME280;14717;46.924;15.474;2024-02-14T06:10:49;98574.69;;;-1.29;100.00
27202;BME280;14717;46.924;15.474;2024-02-14T06:13:15;98577.28;;;-1.48;100.00
27202;BME280;14717;46.924;15.474;2024-02-14T06:15:40;98578.53;;;-1.51;100.00
27202;BME280;14717;46.924;15.474;2024-02-14T06:18:05;98575.44;;;-1.48;100.00
27202;BME280;14717;46.924;15.474;2024-02-14T06:20:31;98590.44;;;-1.45;100.00
27202;BME280;14717;46.924;15.474;2024-02-14T06:22:57;98578.00;;;-1.33;100.00
27202;BME280;14717;46.924;15.474;2024-02-14T06:25:23;98592.59;;;-1.34;100.00
27202;BME280;14717;46.924;15.474;2024-02-14T06:27:48;98592.00;;;-1.24;100.00
27202;BME280;14717;46.924;15.474;2024-02-14T06:30:14;98588.69;;;-1.19;100.00
27202;BME280;14717;46.924;15.474;2024-02-14T06:32:39;98589.53;;;-1.19;100.00
27202;BME280;14717;46.924;15.474;2024-02-14T06:35:05;98595.63;;;-1.04;100.00
27202;BME280;14717;46.924;15.474;2024-02-14T06:37:30;98591.31;;;-0.92;100.00
27202;BME280;14717;46.924;15.474;2024-02-14T06:39:55;98592.28;;;-1.06;100.00
27202;BME280;14717;46.924;15.474;2024-02-14T06:42:21;98591.84;;;-1.16;100.00
27202;BME280;14717;46.924;15.474;2024-02-14T06:44:46;98596.06;;;-1.07;100.00
27202;BME280;14717;46.924;15.474;2024-02-14T06:47:12;98609.00;;;-0.96;100.00
27202;BME280;14717;46.924;15.474;2024-02-14T06:49:37;98611.16;;;-0.85;100.00
27202;BME280;14717;46.924;15.474;2024-02-14T06:52:03;98616.56;;;-0.85;100.00
27202;BME280;14717;46.924;15.474;2024-02-14T06:54:29;98617.00;;;-0.82;100.00
27202;BME280;14717;46.924;15.474;2024-02-14T06:56:54;98615.38;;;-0.70;100.00
27202;BME280;14717;46.924;15.474;2024-02-14T06:59:20;98616.63;;;-0.59;100.00
27202;BME280;14717;46.924;15.474;2024-02-14T07:01:45;98616.88;;;-0.61;100.00
27202;BME280;14717;46.924;15.474;2024-02-14T07:04:11;98616.22;;;-0.56;100.00
27202;BME280;14717;46.924;15.474;2024-02-14T07:06:36;98607.50;;;-0.45;100.00
27202;BME280;14717;46.924;15.474;2024-02-14T07:09:01;98613.78;;;-0.39;100.00
27202;BME280;14717;46.924;15.474;2024-02-14T07:11:27;98611.50;;;-0.29;100.00
27202;BME280;14717;46.924;15.474;2024-02-14T07:13:52;98614.00;;;-0.21;100.00
27202;BME280;14717;46.924;15.474;2024-02-14T07:16:17;98619.66;;;-0.16;100.00
27202;BME280;14717;46.924;15.474;2024-02-14T07:18:43;98605.69;;;0.00;100.00
27202;BME280;14717;46.924;15.474;2024-02-14T07:21:08;98621.53;;;0.09;100.00
27202;BME280;14717;46.924;15.474;2024-02-14T07:23:34;98627.16;;;0.21;100.00
27202;BME280;14717;46.924;15.474;2024-02-14T07:25:59;98636.59;;;0.25;100.00
27202;BME280;14717;46.924;15.474;2024-02-14T07:28:26;98631.38;;;0.30;100.00
27202;BME280;14717;46.924;15.474;2024-02-14T07:30:51;98636.56;;;0.38;100.00
27202;BME280;14717;46.924;15.474;2024-02-14T07:33:17;98633.84;;;0.50;100.00
27202;BME280;14717;46.924;15.474;2024-02-14T07:35:42;98632.78;;;0.64;100.00
27202;BME280;14717;46.924;15.474;2024-02-14T07:38:08;98626.69;;;0.75;100.00
27202;BME280;14717;46.924;15.474;2024-02-14T07:40:33;98627.25;;;0.90;100.00
27202;BME280;14717;46.924;15.474;2024-02-14T07:42:59;98627.66;;;1.00;100.00
27202;BME280;14717;46.924;15.474;2024-02-14T07:45:24;98624.47;;;1.09;100.00
27202;BME280;14717;46.924;15.474;2024-02-14T07:47:50;98623.16;;;1.25;100.00
27202;BME280;14717;46.924;15.474;2024-02-14T07:50:15;98620.81;;;1.34;100.00
27202;BME280;14717;46.924;15.474;2024-02-14T07:52:44;98628.50;;;1.44;100.00
27202;BME280;14717;46.924;15.474;2024-02-14T07:55:11;98619.72;;;1.48;100.00
27202;BME280;14717;46.924;15.474;2024-02-14T07:57:38;98621.28;;;1.62;100.00
27202;BME280;14717;46.924;15.474;2024-02-14T08:00:05;98615.41;;;1.65;100.00
27202;BME280;14717;46.924;15.474;2024-02-14T08:02:31;98612.22;;;1.74;100.00
27202;BME280;14717;46.924;15.474;2024-02-14T08:04:56;98624.84;;;1.93;100.00
27202;BME280;14717;46.924;15.474;2024-02-14T08:07:21;98626.53;;;2.18;100.00
27202;BME280;14717;46.924;15.474;2024-02-14T08:09:47;98622.06;;;2.30;100.00
27202;BME280;14717;46.924;15.474;2024-02-14T08:12:12;98618.97;;;2.45;100.00
27202;BME280;14717;46.924;15.474;2024-02-14T08:14:38;98630.94;;;2.68;100.00
27202;BME280;14717;46.924;15.474;2024-02-14T08:17:03;98632.63;;;2.87;100.00
27202;BME280;14717;46.924;15.474;2024-02-14T08:19:29;98638.56;;;3.01;100.00
27202;BME280;14717;46.924;15.474;2024-02-14T08:21:54;98627.94;;;3.11;100.00
27202;BME280;14717;46.924;15.474;2024-02-14T08:24:25;98631.81;;;3.22;100.00
27202;BME280;14717;46.924;15.474;2024-02-14T08:26:51;98636.50;;;3.33;100.00
27202;BME280;14717;46.924;15.474;2024-02-14T08:29:16;98629.66;;;3.41;100.00
27202;BME280;14717;46.924;15.474;2024-02-14T08:31:41;98627.22;;;3.51;100.00
27202;BME280;14717;46.924;15.474;2024-02-14T08:34:07;98621.19;;;3.79;100.00
27202;BME280;14717;46.924;15.474;2024-02-14T08:36:34;98629.34;;;3.96;100.00
27202;BME280;14717;46.924;15.474;2024-02-14T08:39:06;98606.19;;;4.10;100.00
27202;BME280;14717;46.924;15.474;2024-02-14T08:41:31;98615.00;;;4.23;100.00
27202;BME280;14717;46.924;15.474;2024-02-14T08:43:57;98616.13;;;4.34;100.00
27202;BME280;14717;46.924;15.474;2024-02-14T08:46:22;98614.13;;;4.52;100.00
27202;BME280;14717;46.924;15.474;2024-02-14T08:48:48;98617.47;;;4.65;100.00
27202;BME280;14717;46.924;15.474;2024-02-14T08:51:15;98614.97;;;4.75;100.00
27202;BME280;14717;46.924;15.474;2024-02-14T08:53:40;98617.25;;;4.90;98.30
27202;BME280;14717;46.924;15.474;2024-02-14T08:56:09;98616.13;;;5.02;98.71
27202;BME280;14717;46.924;15.474;2024-02-14T08:58:36;98616.25;;;5.18;96.63
27202;BME280;14717;46.924;15.474;2024-02-14T09:01:01;98620.63;;;5.31;96.68
27202;BME280;14717;46.924;15.474;2024-02-14T09:03:26;98613.75;;;5.06;93.88
27202;BME280;14717;46.924;15.474;2024-02-14T09:05:52;98608.25;;;5.17;91.81
27202;BME280;14717;46.924;15.474;2024-02-14T09:08:19;98611.38;;;5.09;91.42
27202;BME280;14717;46.924;15.474;2024-02-14T09:10:45;98608.88;;;5.07;92.51
27202;BME280;14717;46.924;15.474;2024-02-14T09:13:11;98611.34;;;5.32;93.41
27202;BME280;14717;46.924;15.474;2024-02-14T09:15:36;98608.75;;;5.64;92.15
27202;BME280;14717;46.924;15.474;2024-02-14T09:18:02;98599.03;;;5.46;90.19
27202;BME280;14717;46.924;15.474;2024-02-14T09:20:28;98603.97;;;5.60;92.60
27202;BME280;14717;46.924;15.474;2024-02-14T09:22:55;98593.31;;;5.86;93.18
27202;BME280;14717;46.924;15.474;2024-02-14T09:25:20;98605.31;;;6.13;90.53
27202;BME280;14717;46.924;15.474;2024-02-14T09:27:48;98607.19;;;6.40;88.94
27202;BME280;14717;46.924;15.474;2024-02-14T09:30:14;98602.53;;;6.57;84.91
27202;BME280;14717;46.924;15.474;2024-02-14T09:32:39;98611.88;;;6.72;85.38
27202;BME280;14717;46.924;15.474;2024-02-14T09:35:05;98610.44;;;6.86;85.01
27202;BME280;14717;46.924;15.474;2024-02-14T09:37:32;98613.00;;;7.09;85.05
27202;BME280;14717;46.924;15.474;2024-02-14T09:39:57;98607.16;;;7.21;79.53
27202;BME280;14717;46.924;15.474;2024-02-14T09:42:29;98607.97;;;7.22;79.20
27202;BME280;14717;46.924;15.474;2024-02-14T09:44:58;98610.16;;;7.20;79.76
27202;BME280;14717;46.924;15.474;2024-02-14T09:47:25;98610.09;;;7.36;78.10
27202;BME280;14717;46.924;15.474;2024-02-14T09:49:51;98602.88;;;7.52;76.71
27202;BME280;14717;46.924;15.474;2024-02-14T09:52:17;98601.41;;;7.65;76.91
27202;BME280;14717;46.924;15.474;2024-02-14T09:54:45;98595.97;;;7.70;77.23
27202;BME280;14717;46.924;15.474;2024-02-14T09:57:12;98601.53;;;7.75;71.61
27202;BME280;14717;46.924;15.474;2024-02-14T09:59:39;98601.38;;;7.87;72.15
27202;BME280;14717;46.924;15.474;2024-02-14T10:02:04;98597.16;;;8.01;69.11
27202;BME280;14717;46.924;15.474;2024-02-14T10:04:29;98604.56;;;7.74;67.46
27202;BME280;14717;46.924;15.474;2024-02-14T10:06:55;98602.72;;;8.05;70.56
27202;BME280;14717;46.924;15.474;2024-02-14T10:09:21;98599.25;;;8.15;67.83
27202;BME280;14717;46.924;15.474;2024-02-14T10:11:51;98596.88;;;8.23;69.57
27202;BME280;14717;46.924;15.474;2024-02-14T10:14:16;98591.03;;;8.46;70.50
27202;BME280;14717;46.924;15.474;2024-02-14T10:16:41;98592.34;;;8.39;68.53
27202;BME280;14717;46.924;15.474;2024-02-14T10:19:18;98598.13;;;8.11;68.06
27202;BME280;14717;46.924;15.474;2024-02-14T10:21:43;98591.53;;;8.12;67.69
27202;BME280;14717;46.924;15.474;2024-02-14T10:24:08;98590.75;;;8.16;65.31
27202;BME280;14717;46.924;15.474;2024-02-14T10:26:37;98583.53;;;8.37;64.43
27202;BME280;14717;46.924;15.474;2024-02-14T10:29:02;98583.06;;;8.45;66.10
27202;BME280;14717;46.924;15.474;2024-02-14T10:31:28;98576.94;;;8.74;64.44
27202;BME280;14717;46.924;15.474;2024-02-14T10:33:56;98571.94;;;9.07;62.21
27202;BME280;14717;46.924;15.474;2024-02-14T10:36:22;98572.06;;;9.27;59.45
27202;BME280;14717;46.924;15.474;2024-02-14T10:38:49;98564.16;;;9.35;58.03
27202;BME280;14717;46.924;15.474;2024-02-14T10:41:16;98561.91;;;9.27;56.56
27202;BME280;14717;46.924;15.474;2024-02-14T10:43:42;98561.72;;;9.43;58.59
27202;BME280;14717;46.924;15.474;2024-02-14T10:46:16;98562.00;;;9.47;56.94
27202;BME280;14717;46.924;15.474;2024-02-14T10:48:44;98553.47;;;9.53;57.29
27202;BME280;14717;46.924;15.474;2024-02-14T10:51:12;98551.00;;;9.57;56.73
27202;BME280;14717;46.924;15.474;2024-02-14T10:53:39;98548.34;;;9.76;57.37
27202;BME280;14717;46.924;15.474;2024-02-14T10:56:10;98537.94;;;10.08;58.02
27202;BME280;14717;46.924;15.474;2024-02-14T10:58:36;98529.69;;;10.23;56.93
27202;BME280;14717;46.924;15.474;2024-02-14T11:01:02;98533.28;;;10.38;56.12
27202;BME280;14717;46.924;15.474;2024-02-14T11:03:28;98540.75;;;10.48;55.48
27202;BME280;14717;46.924;15.474;2024-02-14T11:05:55;98536.06;;;10.63;55.94
27202;BME280;14717;46.924;15.474;2024-02-14T11:08:28;98541.88;;;10.66;55.98
27202;BME280;14717;46.924;15.474;2024-02-14T11:10:58;98531.38;;;10.73;56.29
27202;BME280;14717;46.924;15.474;2024-02-14T11:13:28;98523.63;;;10.75;54.38
27202;BME280;14717;46.924;15.474;2024-02-14T11:15:54;98526.91;;;10.87;53.88
27202;BME280;14717;46.924;15.474;2024-02-14T11:18:29;98519.47;;;11.03;54.78
27202;BME280;14717;46.924;15.474;2024-02-14T11:20:55;98513.94;;;11.03;55.01
27202;BME280;14717;46.924;15.474;2024-02-14T11:23:23;98515.06;;;10.77;52.56
27202;BME280;14717;46.924;15.474;2024-02-14T11:25:49;98520.25;;;11.08;53.40
27202;BME280;14717;46.924;15.474;2024-02-14T11:28:19;98507.78;;;11.10;51.31
27202;BME280;14717;46.924;15.474;2024-02-14T11:30:48;98509.19;;;11.08;50.23
27202;BME280;14717;46.924;15.474;2024-02-14T11:33:24;98506.16;;;11.14;50.44
27202;BME280;14717;46.924;15.474;2024-02-14T11:35:51;98500.34;;;11.11;49.75
27202;BME280;14717;46.924;15.474;2024-02-14T11:38:21;98504.41;;;11.33;49.92
27202;BME280;14717;46.924;15.474;2024-02-14T11:40:47;98507.13;;;11.53;48.37
27202;BME280;14717;46.924;15.474;2024-02-14T11:43:14;98506.88;;;11.45;47.48
27202;BME280;14717;46.924;15.474;2024-02-14T11:45:44;98505.78;;;11.50;46.90
27202;BME280;14717;46.924;15.474;2024-02-14T11:48:12;98501.56;;;11.63;47.19
27202;BME280;14717;46.924;15.474;2024-02-14T11:50:39;98511.31;;;11.41;48.06
27202;BME280;14717;46.924;15.474;2024-02-14T11:53:06;98503.38;;;11.19;47.71
27202;BME280;14717;46.924;15.474;2024-02-14T11:55:36;98496.91;;;11.58;48.72
27202;BME280;14717;46.924;15.474;2024-02-14T11:58:06;98491.34;;;11.63;49.00
27202;BME280;14717;46.924;15.474;2024-02-14T12:00:32;98501.31;;;11.54;49.05
27202;BME280;14717;46.924;15.474;2024-02-14T12:02:58;98492.47;;;11.52;49.21
27202;BME280;14717;46.924;15.474;2024-02-14T12:05:24;98488.31;;;11.50;47.03
27202;BME280;14717;46.924;15.474;2024-02-14T12:07:49;98485.81;;;11.58;45.59
27202;BME280;14717;46.924;15.474;2024-02-14T12:10:15;98490.19;;;11.64;45.07
27202;BME280;14717;46.924;15.474;2024-02-14T12:12:45;98484.03;;;11.82;44.40
27202;BME280;14717;46.924;15.474;2024-02-14T12:15:11;98480.06;;;11.98;44.93
27202;BME280;14717;46.924;15.474;2024-02-14T12:17:39;98483.63;;;12.03;42.87
27202;BME280;14717;46.924;15.474;2024-02-14T12:20:07;98473.31;;;12.09;42.68
27202;BME280;14717;46.924;15.474;2024-02-14T12:22:34;98471.13;;;12.06;42.61
27202;BME280;14717;46.924;15.474;2024-02-14T12:24:59;98476.25;;;11.84;44.20
27202;BME280;14717;46.924;15.474;2024-02-14T12:27:25;98466.72;;;12.05;45.53
27202;BME280;14717;46.924;15.474;2024-02-14T12:29:51;98463.50;;;12.26;47.78
27202;BME280;14717;46.924;15.474;2024-02-14T12:32:16;98465.19;;;12.22;46.26
27202;BME280;14717;46.924;15.474;2024-02-14T12:34:44;98453.69;;;12.38;45.39
27202;BME280;14717;46.924;15.474;2024-02-14T12:37:10;98460.63;;;12.41;45.04
27202;BME280;14717;46.924;15.474;2024-02-14T12:39:36;98463.03;;;12.19;44.78
27202;BME280;14717;46.924;15.474;2024-02-14T12:42:03;98453.22;;;12.32;44.95